sensor_id;sensor_type;location;lat;lon;timestamp;pressure;altitude;pressure_sealevel;temperature;humidity
72640;BME280;60683;51.730;8.762;2024-02-21T00:01:40;101034.59;;;7.50;100.00
72640;BME280;60683;51.730;8.762;2024-02-21T00:04:26;101048.78;;;7.50;100.00
72640;BME280;60683;51.730;8.762;2024-02-21T00:07:12;101042.63;;;7.50;100.00
72640;BME280;60683;51.730;8.762;2024-02-21T00:09:57;101040.31;;;7.47;100.00
72640;BME280;60683;51.730;8.762;2024-02-21T00:12:42;101045.47;;;7.48;100.00
72640;BME280;60683;51.730;8.762;2024-02-21T00:15:28;101023.69;;;7.51;100.00
72640;BME280;60683;51.730;8.762;2024-02-21T00:18:13;101019.16;;;7.52;100.00
72640;BME280;60683;51.730;8.762;2024-02-21T00:20:59;101025.34;;;7.52;100.00
72640;BME280;60683;51.730;8.762;2024-02-21T00:23:45;101021.41;;;7.48;100.00
72640;BME280;60683;51.730;8.762;2024-02-21T00:26:31;101013.00;;;7.51;100.00
72640;BME280;60683;51.730;8.762;2024-02-21T00:29:16;101016.69;;;7.50;100.00
72640;BME280;60683;51.730;8.762;2024-02-21T00:32:01;101017.53;;;7.51;100.00
72640;BME280;60683;51.730;8.762;2024-02-21T00:34:47;101012.16;;;7.51;100.00
72640;BME280;60683;51.730;8.762;2024-02-21T00:37:33;101013.38;;;7.48;100.00
72640;BME280;60683;51.730;8.762;2024-02-21T00:40:18;101016.69;;;7.50;100.00
72640;BME280;60683;51.730;8.762;2024-02-21T00:43:05;100995.91;;;7.52;100.00
72640;BME280;60683;51.730;8.762;2024-02-21T00:45:51;100994.47;;;7.50;100.00
72640;BME280;60683;51.730;8.762;2024-02-21T00:48:36;100991.59;;;7.51;100.00
72640;BME280;60683;51.730;8.762;2024-02-21T00:51:22;100986.81;;;7.47;100.00
72640;BME280;60683;51.730;8.762;2024-02-21T00:54:08;100983.13;;;7.48;100.00
72640;BME280;60683;51.730;8.762;2024-02-21T00:56:54;100976.31;;;7.45;100.00
72640;BME280;60683;51.730;8.762;2024-02-21T00:59:39;100964.66;;;7.53;100.00
72640;BME280;60683;51.730;8.762;2024-02-21T01:02:26;100957.00;;;7.50;100.00
72640;BME280;60683;51.730;8.762;2024-02-21T01:05:11;100959.47;;;7.51;100.00
72640;BME280;60683;51.730;8.762;2024-02-21T01:07:56;100959.47;;;7.51;100.00
72640;BME280;60683;51.730;8.762;2024-02-21T01:10:42;100947.75;;;7.52;100.00
72640;BME280;60683;51.730;8.762;2024-02-21T01:13:28;100942.41;;;7.52;100.00
72640;BME280;60683;51.730;8.762;2024-02-21T01:16:13;100927.38;;;7.51;100.00
72640;BME280;60683;51.730;8.762;2024-02-21T01:18:58;100930.50;;;7.55;100.00
72640;BME280;60683;51.730;8.762;2024-02-21T01:21:43;100912.97;;;7.52;100.00
72640;BME280;60683;51.730;8.762;2024-02-21T01:24:29;100929.47;;;7.56;100.00
72640;BME280;60683;51.730;8.762;2024-02-21T01:27:16;100929.47;;;7.56;100.00
72640;BME280;60683;51.730;8.762;2024-02-21T01:30:01;100924.75;;;7.58;100.00
72640;BME280;60683;51.730;8.762;2024-02-21T01:32:46;100924.94;;;7.56;100.00
72640;BME280;60683;51.730;8.762;2024-02-21T01:35:31;100920.22;;;7.58;100.00
72640;BME280;60683;51.730;8.762;2024-02-21T01:38:16;100929.09;;;7.59;100.00
72640;BME280;60683;51.730;8.762;2024-02-21T01:41:02;100924.56;;;7.59;100.00
72640;BME280;60683;51.730;8.762;2024-02-21T01:43:49;100917.81;;;7.63;100.00
72640;BME280;60683;51.730;8.762;2024-02-21T01:46:35;100916.00;;;7.71;100.00
72640;BME280;60683;51.730;8.762;2024-02-21T01:49:21;100900.78;;;7.71;100.00
72640;BME280;60683;51.730;8.762;2024-02-21T01:52:07;100905.28;;;7.71;100.00
72640;BME280;60683;51.730;8.762;2024-02-21T01:54:54;100901.00;;;7.76;100.00
72640;BME280;60683;51.730;8.762;2024-02-21T01:57:39;100904.72;;;7.75;100.00
72640;BME280;60683;51.730;8.762;2024-02-21T02:00:26;100903.25;;;7.73;100.00
72640;BME280;60683;51.730;8.762;2024-02-21T02:03:12;100908.22;;;7.76;100.00
72640;BME280;60683;51.730;8.762;2024-02-21T02:06:00;100907.38;;;7.75;100.00
72640;BME280;60683;51.730;8.762;2024-02-21T02:08:46;100900.38;;;7.74;100.00
72640;BME280;60683;51.730;8.762;2024-02-21T02:11:31;100898.34;;;7.76;100.00
72640;BME280;60683;51.730;8.762;2024-02-21T02:14:17;100897.50;;;7.76;100.00
72640;BME280;60683;51.730;8.762;2024-02-21T02:17:05;100894.84;;;7.76;100.00
72640;BME280;60683;51.730;8.762;2024-02-21T02:19:50;100880.59;;;7.69;100.00
72640;BME280;60683;51.730;8.762;2024-02-21T02:22:37;100876.69;;;7.71;100.00
72640;BME280;60683;51.730;8.762;2024-02-21T02:25:25;100872.78;;;7.74;100.00
72640;BME280;60683;51.730;8.762;2024-02-21T02:28:10;100867.84;;;7.71;100.00
72640;BME280;60683;51.730;8.762;2024-02-21T02:30:56;100860.81;;;7.70;100.00
72640;BME280;60683;51.730;8.762;2024-02-21T02:33:42;100858.34;;;7.68;100.00
72640;BME280;60683;51.730;8.762;2024-02-21T02:36:28;100859.16;;;7.69;100.00
72640;BME280;60683;51.730;8.762;2024-02-21T02:39:13;100867.00;;;7.70;100.00
72640;BME280;60683;51.730;8.762;2024-02-21T02:42:00;100849.09;;;7.71;100.00
72640;BME280;60683;51.730;8.762;2024-02-21T02:44:45;100866.38;;;7.68;100.00
72640;BME280;60683;51.730;8.762;2024-02-21T02:47:30;100853.38;;;7.65;100.00
72640;BME280;60683;51.730;8.762;2024-02-21T02:50:15;100847.84;;;7.67;100.00
72640;BME280;60683;51.730;8.762;2024-02-21T02:53:01;100843.13;;;7.69;100.00
72640;BME280;60683;51.730;8.762;2024-02-21T02:55:46;100832.81;;;7.66;100.00
72640;BME280;60683;51.730;8.762;2024-02-21T02:58:33;100828.47;;;7.64;100.00
72640;BME280;60683;51.730;8.762;2024-02-21T03:01:19;100826.19;;;7.61;100.00
72640;BME280;60683;51.730;8.762;2024-02-21T03:04:04;100830.53;;;7.62;100.00
72640;BME280;60683;51.730;8.762;2024-02-21T03:06:49;100821.47;;;7.63;100.00
72640;BME280;60683;51.730;8.762;2024-02-21T03:09:35;100809.34;;;7.68;100.00
72640;BME280;60683;51.730;8.762;2024-02-21T03:12:20;100814.69;;;7.68;100.00
72640;BME280;60683;51.730;8.762;2024-02-21T03:15:13;100797.19;;;7.65;100.00
72640;BME280;60683;51.730;8.762;2024-02-21T03:17:59;100805.22;;;7.65;100.00
72640;BME280;60683;51.730;8.762;2024-02-21T03:20:44;100798.41;;;7.62;100.00
72640;BME280;60683;51.730;8.762;2024-02-21T03:23:29;100798.22;;;7.64;100.00
72640;BME280;60683;51.730;8.762;2024-02-21T03:26:15;100791.22;;;7.63;100.00
72640;BME280;60683;51.730;8.762;2024-02-21T03:29:01;100781.94;;;7.59;100.00
72640;BME280;60683;51.730;8.762;2024-02-21T03:31:48;100766.09;;;7.64;100.00
72640;BME280;60683;51.730;8.762;2024-02-21T03:34:33;100771.25;;;7.66;100.00
72640;BME280;60683;51.730;8.762;2024-02-21T03:37:18;100762.81;;;7.62;100.00
72640;BME280;60683;51.730;8.762;2024-02-21T03:40:07;100751.91;;;7.63;100.00
72640;BME280;60683;51.730;8.762;2024-02-21T03:42:52;100754.78;;;7.62;100.00
72640;BME280;60683;51.730;8.762;2024-02-21T03:45:37;100758.50;;;7.68;100.00
72640;BME280;60683;51.730;8.762;2024-02-21T03:48:25;100761.81;;;7.70;100.00
72640;BME280;60683;51.730;8.762;2024-02-21T03:51:10;100758.31;;;7.69;100.00
72640;BME280;60683;51.730;8.762;2024-02-21T03:53:55;100763.66;;;7.69;100.00
72640;BME280;60683;51.730;8.762;2024-02-21T03:56:40;100767.78;;;7.72;100.00
72640;BME280;60683;51.730;8.762;2024-02-21T03:59:25;100767.78;;;7.72;100.00
72640;BME280;60683;51.730;8.762;2024-02-21T04:02:11;100764.72;;;7.75;100.00
72640;BME280;60683;51.730;8.762;2024-02-21T04:04:58;100778.72;;;7.77;100.00
72640;BME280;60683;51.730;8.762;2024-02-21T04:07:43;100774.00;;;7.79;100.00
72640;BME280;60683;51.730;8.762;2024-02-21T04:10:28;100780.19;;;7.79;100.00
72640;BME280;60683;51.730;8.762;2024-02-21T04:13:13;100782.63;;;7.81;100.00
72640;BME280;60683;51.730;8.762;2024-02-21T04:15:59;100776.03;;;7.77;100.00
72640;BME280;60683;51.730;8.762;2024-02-21T04:18:45;100780.38;;;7.78;100.00
72640;BME280;60683;51.730;8.762;2024-02-21T04:21:32;100771.09;;;7.74;100.00
72640;BME280;60683;51.730;8.762;2024-02-21T04:24:17;100777.91;;;7.76;100.00
72640;BME280;60683;51.730;8.762;2024-02-21T04:27:03;100767.00;;;7.78;100.00
72640;BME280;60683;51.730;8.762;2024-02-21T04:29:48;100777.69;;;7.78;100.00
72640;BME280;60683;51.730;8.762;2024-02-21T04:32:34;100782.22;;;7.77;100.00
72640;BME280;60683;51.730;8.762;2024-02-21T04:35:19;100797.66;;;7.75;100.00
72640;BME280;60683;51.730;8.762;2024-02-21T04:38:06;100790.84;;;7.73;100.00
72640;BME280;60683;51.730;8.762;2024-02-21T04:40:51;100794.16;;;7.75;100.00
72640;BME280;60683;51.730;8.762;2024-02-21T04:43:37;100784.28;;;7.75;100.00
72640;BME280;60683;51.730;8.762;2024-02-21T04:46:22;100789.81;;;7.74;100.00
72640;BME280;60683;51.730;8.762;2024-02-21T04:49:07;100779.50;;;7.71;100.00
72640;BME280;60683;51.730;8.762;2024-02-21T04:51:54;100789.19;;;7.72;100.00
72640;BME280;60683;51.730;8.762;2024-02-21T04:54:42;100791.88;;;7.72;100.00
72640;BME280;60683;51.730;8.762;2024-02-21T04:57:27;100782.19;;;7.71;100.00
72640;BME280;60683;51.730;8.762;2024-02-21T05:00:13;100784.25;;;7.69;100.00
72640;BME280;60683;51.730;8.762;2024-02-21T05:02:59;100787.13;;;7.67;100.00
72640;BME280;60683;51.730;8.762;2024-02-21T05:05:44;100788.75;;;7.68;100.00
72640;BME280;60683;51.730;8.762;2024-02-21T05:08:29;100789.59;;;7.69;100.00
72640;BME280;60683;51.730;8.762;2024-02-21T05:11:16;100797.41;;;7.70;100.00
72640;BME280;60683;51.730;8.762;2024-02-21T05:14:01;100790.22;;;7.71;100.00
72640;BME280;60683;51.730;8.762;2024-02-21T05:16:47;100787.75;;;7.69;100.00
72640;BME280;60683;51.730;8.762;2024-02-21T05:19:32;100781.75;;;7.67;100.00
72640;BME280;60683;51.730;8.762;2024-02-21T05:22:18;100788.75;;;7.68;100.00
72640;BME280;60683;51.730;8.762;2024-02-21T05:25:03;100788.34;;;7.64;100.00
72640;BME280;60683;51.730;8.762;2024-02-21T05:27:52;100800.69;;;7.66;100.00
72640;BME280;60683;51.730;8.762;2024-02-21T05:30:37;100797.00;;;7.67;100.00
72640;BME280;60683;51.730;8.762;2024-02-21T05:33:22;100788.13;;;7.66;100.00
72640;BME280;60683;51.730;8.762;2024-02-21T05:36:07;100779.09;;;7.67;100.00
72640;BME280;60683;51.730;8.762;2024-02-21T05:38:53;100769.22;;;7.68;100.00
72640;BME280;60683;51.730;8.762;2024-02-21T05:41:38;100762.19;;;7.67;100.00
72640;BME280;60683;51.730;8.762;2024-02-21T05:44:25;100762.00;;;7.68;100.00
72640;BME280;60683;51.730;8.762;2024-02-21T05:47:10;100755.00;;;7.67;100.00
72640;BME280;60683;51.730;8.762;2024-02-21T05:49:59;100756.66;;;7.68;100.00
72640;BME280;60683;51.730;8.762;2024-02-21T05:52:44;100751.31;;;7.68;100.00
72640;BME280;60683;51.730;8.762;2024-02-21T05:55:30;100741.81;;;7.66;100.00
72640;BME280;60683;51.730;8.762;2024-02-21T05:58:16;100737.50;;;7.64;100.00
72640;BME280;60683;51.730;8.762;2024-02-21T06:01:03;100732.13;;;7.64;100.00
72640;BME280;60683;51.730;8.762;2024-02-21T06:03:50;100723.91;;;7.66;100.00
72640;BME280;60683;51.730;8.762;2024-02-21T06:06:35;100724.75;;;7.67;100.00
72640;BME280;60683;51.730;8.762;2024-02-21T06:09:20;100710.97;;;7.70;100.00
72640;BME280;60683;51.730;8.762;2024-02-21T06:12:06;100697.97;;;7.67;100.00
72640;BME280;60683;51.730;8.762;2024-02-21T06:14:51;100712.38;;;7.66;100.00
72640;BME280;60683;51.730;8.762;2024-02-21T06:17:38;100710.34;;;7.68;100.00
72640;BME280;60683;51.730;8.762;2024-02-21T06:20:24;100715.50;;;7.69;100.00
72640;BME280;60683;51.730;8.762;2024-02-21T06:23:09;100712.81;;;7.69;100.00
72640;BME280;60683;51.730;8.762;2024-02-21T06:25:55;100712.81;;;7.69;100.00
72640;BME280;60683;51.730;8.762;2024-02-21T06:28:40;100716.31;;;7.70;100.00
72640;BME280;60683;51.730;8.762;2024-02-21T06:31:27;100718.78;;;7.71;100.00
72640;BME280;60683;51.730;8.762;2024-02-21T06:34:14;100721.66;;;7.70;100.00
72640;BME280;60683;51.730;8.762;2024-02-21T06:36:58;100722.91;;;7.74;100.00
72640;BME280;60683;51.730;8.762;2024-02-21T06:39:44;100715.50;;;7.76;100.00
72640;BME280;60683;51.730;8.762;2024-02-21T06:42:29;100708.50;;;7.75;100.00
72640;BME280;60683;51.730;8.762;2024-02-21T06:45:15;100691.44;;;7.76;100.00
72640;BME280;60683;51.730;8.762;2024-02-21T06:48:01;100673.50;;;7.76;100.00
72640;BME280;60683;51.730;8.762;2024-02-21T06:50:48;100671.47;;;7.78;100.00
72640;BME280;60683;51.730;8.762;2024-02-21T06:53:32;100670.63;;;7.78;100.00
72640;BME280;60683;51.730;8.762;2024-02-21T06:56:19;100674.97;;;7.79;100.00
72640;BME280;60683;51.730;8.762;2024-02-21T06:59:04;100665.69;;;7.81;100.00
72640;BME280;60683;51.730;8.762;2024-02-21T07:01:53;100664.44;;;7.84;100.00
72640;BME280;60683;51.730;8.762;2024-02-21T07:04:38;100667.75;;;7.86;100.00
72640;BME280;60683;51.730;8.762;2024-02-21T07:07:25;100664.03;;;7.87;100.00
72640;BME280;60683;51.730;8.762;2024-02-21T07:10:10;100655.63;;;7.90;100.00
72640;BME280;60683;51.730;8.762;2024-02-21T07:12:56;100652.94;;;7.90;100.00
72640;BME280;60683;51.730;8.762;2024-02-21T07:15:41;100647.81;;;7.95;100.00
72640;BME280;60683;51.730;8.762;2024-02-21T07:18:26;100644.72;;;7.98;100.00
72640;BME280;60683;51.730;8.762;2024-02-21T07:21:12;100648.84;;;8.01;100.00
72640;BME280;60683;51.730;8.762;2024-02-21T07:23:58;100652.56;;;8.06;100.00
72640;BME280;60683;51.730;8.762;2024-02-21T07:26:44;100656.06;;;8.07;100.00
72640;BME280;60683;51.730;8.762;2024-02-21T07:29:29;100655.44;;;8.11;100.00
72640;BME280;60683;51.730;8.762;2024-02-21T07:32:14;100655.25;;;8.13;100.00
72640;BME280;60683;51.730;8.762;2024-02-21T07:34:59;100658.75;;;8.13;100.00
72640;BME280;60683;51.730;8.762;2024-02-21T07:37:45;100672.56;;;8.17;100.00
72640;BME280;60683;51.730;8.762;2024-02-21T07:40:32;100675.03;;;8.18;100.00
72640;BME280;60683;51.730;8.762;2024-02-21T07:43:17;100675.88;;;8.25;100.00
72640;BME280;60683;51.730;8.762;2024-02-21T07:46:02;100681.19;;;8.32;100.00
72640;BME280;60683;51.730;8.762;2024-02-21T07:48:50;100677.53;;;8.33;99.77
72640;BME280;60683;51.730;8.762;2024-02-21T07:51:35;100665.56;;;8.36;98.36
72640;BME280;60683;51.730;8.762;2024-02-21T07:54:21;100661.44;;;8.40;97.22
72640;BME280;60683;51.730;8.762;2024-02-21T07:57:07;100658.34;;;8.43;97.41
72640;BME280;60683;51.730;8.762;2024-02-21T07:59:53;100664.53;;;8.43;97.90
72640;BME280;60683;51.730;8.762;2024-02-21T08:02:38;100658.78;;;8.53;97.25
72640;BME280;60683;51.730;8.762;2024-02-21T08:05:23;100667.44;;;8.61;96.64
72640;BME280;60683;51.730;8.762;2024-02-21T08:08:09;100656.91;;;8.67;96.10
72640;BME280;60683;51.730;8.762;2024-02-21T08:10:55;100657.53;;;8.62;95.17
72640;BME280;60683;51.730;8.762;2024-02-21T08:13:42;100659.19;;;8.63;95.35
72640;BME280;60683;51.730;8.762;2024-02-21T08:16:27;100656.50;;;8.70;95.46
72640;BME280;60683;51.730;8.762;2024-02-21T08:19:13;100657.75;;;8.67;94.86
72640;BME280;60683;51.730;8.762;2024-02-21T08:21:58;100656.09;;;8.73;95.08
72640;BME280;60683;51.730;8.762;2024-02-21T08:24:44;100645.56;;;8.71;93.73
72640;BME280;60683;51.730;8.762;2024-02-21T08:27:29;100642.47;;;8.61;94.34
72640;BME280;60683;51.730;8.762;2024-02-21T08:30:16;100632.59;;;8.68;94.67
72640;BME280;60683;51.730;8.762;2024-02-21T08:33:02;100635.25;;;8.75;94.61
72640;BME280;60683;51.730;8.762;2024-02-21T08:35:48;100632.34;;;8.83;93.88
72640;BME280;60683;51.730;8.762;2024-02-21T08:38:33;100620.34;;;8.92;92.71
72640;BME280;60683;51.730;8.762;2024-02-21T08:41:18;100614.78;;;8.87;90.81
72640;BME280;60683;51.730;8.762;2024-02-21T08:44:05;100615.38;;;8.95;90.87
72640;BME280;60683;51.730;8.762;2024-02-21T08:46:52;100610.19;;;9.07;91.39
72640;BME280;60683;51.730;8.762;2024-02-21T08:49:38;100614.91;;;9.12;88.87
72640;BME280;60683;51.730;8.762;2024-02-21T08:52:24;100606.25;;;9.10;87.62
72640;BME280;60683;51.730;8.762;2024-02-21T08:55:09;100605.19;;;9.24;87.02
72640;BME280;60683;51.730;8.762;2024-02-21T08:57:55;100599.22;;;9.22;85.47
72640;BME280;60683;51.730;8.762;2024-02-21T09:00:40;100584.94;;;9.28;85.61
72640;BME280;60683;51.730;8.762;2024-02-21T09:03:27;100577.28;;;9.32;83.85
72640;BME280;60683;51.730;8.762;2024-02-21T09:06:13;100589.00;;;9.37;83.52
72640;BME280;60683;51.730;8.762;2024-02-21T09:08:58;100572.75;;;9.32;82.64
72640;BME280;60683;51.730;8.762;2024-02-21T09:11:44;100579.19;;;9.24;81.81
72640;BME280;60683;51.730;8.762;2024-02-21T09:14:29;100585.59;;;9.17;82.18
72640;BME280;60683;51.730;8.762;2024-02-21T09:17:15;100585.41;;;9.18;81.79
72640;BME280;60683;51.730;8.762;2024-02-21T09:20:03;100577.38;;;9.12;81.62
72640;BME280;60683;51.730;8.762;2024-02-21T09:22:48;100583.13;;;9.15;82.65
72640;BME280;60683;51.730;8.762;2024-02-21T09:25:33;100580.44;;;9.22;82.62
72640;BME280;60683;51.730;8.762;2024-02-21T09:28:18;100583.91;;;9.29;83.43
72640;BME280;60683;51.730;8.762;2024-02-21T09:31:03;100579.63;;;9.53;83.43
72640;BME280;60683;51.730;8.762;2024-02-21T09:33:49;100595.31;;;9.56;82.74
72640;BME280;60683;51.730;8.762;2024-02-21T09:36:36;100586.69;;;9.47;82.84
72640;BME280;60683;51.730;8.762;2024-02-21T09:39:22;100586.25;;;9.50;83.07
72640;BME280;60683;51.730;8.762;2024-02-21T09:42:11;100581.78;;;9.38;82.46
72640;BME280;60683;51.730;8.762;2024-02-21T09:44:56;100579.22;;;9.49;83.12
72640;BME280;60683;51.730;8.762;2024-02-21T09:47:50;100577.94;;;9.58;82.33
72640;BME280;60683;51.730;8.762;2024-02-21T09:50:43;100576.69;;;9.61;83.47
72640;BME280;60683;51.730;8.762;2024-02-21T09:53:30;100568.00;;;9.66;82.38
72640;BME280;60683;51.730;8.762;2024-02-21T09:56:16;100561.81;;;9.65;82.64
72640;BME280;60683;51.730;8.762;2024-02-21T09:59:01;100565.91;;;9.68;82.62
72640;BME280;60683;51.730;8.762;2024-02-21T10:01:48;100556.22;;;9.67;83.50
72640;BME280;60683;51.730;8.762;2024-02-21T10:04:34;100539.50;;;9.65;82.86
72640;BME280;60683;51.730;8.762;2024-02-21T10:07:20;100530.41;;;9.66;82.74
72640;BME280;60683;51.730;8.762;2024-02-21T10:10:10;100531.88;;;9.61;82.49
72640;BME280;60683;51.730;8.762;2024-02-21T10:12:56;100535.78;;;9.66;83.13
72640;BME280;60683;51.730;8.762;2024-02-21T10:15:42;100530.59;;;9.71;82.79
72640;BME280;60683;51.730;8.762;2024-02-21T10:18:27;100525.56;;;9.81;81.74
72640;BME280;60683;51.730;8.762;2024-02-21T10:21:13;100520.34;;;9.86;81.99
72640;BME280;60683;51.730;8.762;2024-02-21T10:23:58;100518.19;;;9.94;81.79
72640;BME280;60683;51.730;8.762;2024-02-21T10:26:45;100525.19;;;9.95;81.86
72640;BME280;60683;51.730;8.762;2024-02-21T10:29:32;100514.13;;;10.10;81.80
72640;BME280;60683;51.730;8.762;2024-02-21T10:32:17;100513.84;;;10.18;79.96
72640;BME280;60683;51.730;8.762;2024-02-21T10:35:03;100507.47;;;10.19;79.35
72640;BME280;60683;51.730;8.762;2024-02-21T10:37:49;100492.09;;;10.26;78.88
72640;BME280;60683;51.730;8.762;2024-02-21T10:40:39;100498.50;;;10.25;78.62
72640;BME280;60683;51.730;8.762;2024-02-21T10:43:26;100502.72;;;10.15;78.54
72640;BME280;60683;51.730;8.762;2024-02-21T10:46:13;100484.97;;;10.14;78.52
72640;BME280;60683;51.730;8.762;2024-02-21T10:49:06;100484.03;;;10.26;78.24
72640;BME280;60683;51.730;8.762;2024-02-21T10:52:01;100483.81;;;10.46;76.94
72640;BME280;60683;51.730;8.762;2024-02-21T10:54:55;100481.06;;;10.35;76.64
72640;BME280;60683;51.730;8.762;2024-02-21T10:57:42;100488.50;;;10.51;76.65
72640;BME280;60683;51.730;8.762;2024-02-21T11:00:30;100477.09;;;10.55;75.95
72640;BME280;60683;51.730;8.762;2024-02-21T11:03:15;100468.63;;;10.70;75.51
72640;BME280;60683;51.730;8.762;2024-02-21T11:06:02;100460.81;;;10.50;75.06
72640;BME280;60683;51.730;8.762;2024-02-21T11:08:59;100455.22;;;10.52;76.00
72640;BME280;60683;51.730;8.762;2024-02-21T11:11:45;100449.66;;;10.65;75.18
72640;BME280;60683;51.730;8.762;2024-02-21T11:14:30;100444.44;;;10.70;75.36
72640;BME280;60683;51.730;8.762;2024-02-21T11:17:19;100426.06;;;10.67;74.10
72640;BME280;60683;51.730;8.762;2024-02-21T11:20:12;100425.63;;;10.70;75.78
72640;BME280;60683;51.730;8.762;2024-02-21T11:22:57;100412.47;;;10.62;75.22
72640;BME280;60683;51.730;8.762;2024-02-21T11:25:42;100414.72;;;10.65;75.49
72640;BME280;60683;51.730;8.762;2024-02-21T11:28:27;100409.97;;;10.49;75.63
72640;BME280;60683;51.730;8.762;2024-02-21T11:31:13;100406.13;;;10.75;76.21
72640;BME280;60683;51.730;8.762;2024-02-21T11:34:01;100396.53;;;10.79;76.52
72640;BME280;60683;51.730;8.762;2024-02-21T11:36:47;100394.72;;;10.61;77.01
72640;BME280;60683;51.730;8.762;2024-02-21T11:39:34;100385.94;;;10.84;77.93
72640;BME280;60683;51.730;8.762;2024-02-21T11:42:20;100386.75;;;10.84;75.62
72640;BME280;60683;51.730;8.762;2024-02-21T11:45:06;100386.59;;;10.79;76.30
72640;BME280;60683;51.730;8.762;2024-02-21T11:47:52;100373.97;;;10.50;77.79
72640;BME280;60683;51.730;8.762;2024-02-21T11:50:40;100365.41;;;10.71;76.23
72640;BME280;60683;51.730;8.762;2024-02-21T11:53:25;100349.31;;;10.53;76.62
72640;BME280;60683;51.730;8.762;2024-02-21T11:56:14;100347.13;;;10.61;77.63
72640;BME280;60683;51.730;8.762;2024-02-21T11:58:59;100323.22;;;10.72;77.08
72640;BME280;60683;51.730;8.762;2024-02-21T12:01:45;100319.97;;;10.81;77.74
72640;BME280;60683;51.730;8.762;2024-02-21T12:04:31;100322.81;;;10.56;77.94
72640;BME280;60683;51.730;8.762;2024-02-21T12:07:18;100312.13;;;10.38;79.31
72640;BME280;60683;51.730;8.762;2024-02-21T12:10:07;100308.88;;;10.48;80.51
72640;BME280;60683;51.730;8.762;2024-02-21T12:12:53;100303.69;;;10.35;80.95
72640;BME280;60683;51.730;8.762;2024-02-21T12:15:47;100303.94;;;10.33;82.19
72640;BME280;60683;51.730;8.762;2024-02-21T12:18:32;100306.97;;;10.37;82.87
72640;BME280;60683;51.730;8.762;2024-02-21T12:21:18;100311.41;;;10.31;83.16
72640;BME280;60683;51.730;8.762;2024-02-21T12:24:15;100315.13;;;10.30;83.51
72640;BME280;60683;51.730;8.762;2024-02-21T12:27:01;100307.19;;;10.17;84.54
72640;BME280;60683;51.730;8.762;2024-02-21T12:29:47;100301.47;;;10.13;85.88
72640;BME280;60683;51.730;8.762;2024-02-21T12:32:33;100291.25;;;10.04;86.12
72640;BME280;60683;51.730;8.762;2024-02-21T12:35:19;100286.47;;;10.06;86.68
72640;BME280;60683;51.730;8.762;2024-02-21T12:38:04;100287.81;;;10.15;86.33
72640;BME280;60683;51.730;8.762;2024-02-21T12:40:50;100281.09;;;10.06;86.23
72640;BME280;60683;51.730;8.762;2024-02-21T12:43:36;100272.38;;;10.10;86.02
72640;BME280;60683;51.730;8.762;2024-02-21T12:46:22;100272.72;;;10.32;85.38
72640;BME280;60683;51.730;8.762;2024-02-21T12:49:07;100260.63;;;10.53;83.05
72640;BME280;60683;51.730;8.762;2024-02-21T12:51:53;100246.88;;;10.73;82.89
72640;BME280;60683;51.730;8.762;2024-02-21T12:54:38;100229.00;;;10.78;81.74
72640;BME280;60683;51.730;8.762;2024-02-21T12:57:25;100227.25;;;10.72;81.29
72640;BME280;60683;51.730;8.762;2024-02-21T13:00:11;100218.34;;;10.72;80.55
72640;BME280;60683;51.730;8.762;2024-02-21T13:02:58;100200.78;;;10.57;80.33
72640;BME280;60683;51.730;8.762;2024-02-21T13:05:43;100208.16;;;10.62;80.25
72640;BME280;60683;51.730;8.762;2024-02-21T13:08:29;100210.97;;;10.67;79.59
72640;BME280;60683;51.730;8.762;2024-02-21T13:11:14;100221.97;;;10.66;80.70
72640;BME280;60683;51.730;8.762;2024-02-21T13:14:02;100227.91;;;10.56;81.34
72640;BME280;60683;51.730;8.762;2024-02-21T13:16:47;100211.16;;;10.42;79.60
72640;BME280;60683;51.730;8.762;2024-02-21T13:19:33;100176.69;;;10.27;79.79
72640;BME280;60683;51.730;8.762;2024-02-21T13:22:18;100175.41;;;10.42;80.20
72640;BME280;60683;51.730;8.762;2024-02-21T13:25:06;100142.81;;;10.50;79.17
72640;BME280;60683;51.730;8.762;2024-02-21T13:27:52;100146.34;;;10.74;79.75
72640;BME280;60683;51.730;8.762;2024-02-21T13:30:38;100119.91;;;10.59;78.28
72640;BME280;60683;51.730;8.762;2024-02-21T13:33:24;100092.44;;;10.80;78.14
72640;BME280;60683;51.730;8.762;2024-02-21T13:36:10;100095.38;;;10.90;77.39
72640;BME280;60683;51.730;8.762;2024-02-21T13:38:55;100088.00;;;10.86;78.27
72640;BME280;60683;51.730;8.762;2024-02-21T13:41:41;100098.13;;;10.95;78.40
72640;BME280;60683;51.730;8.762;2024-02-21T13:44:27;100093.06;;;11.11;77.96
72640;BME280;60683;51.730;8.762;2024-02-21T13:47:14;100085.16;;;10.92;78.95
72640;BME280;60683;51.730;8.762;2024-02-21T13:49:59;100057.19;;;11.05;79.20
72640;BME280;60683;51.730;8.762;2024-02-21T13:52:45;100051.19;;;11.15;78.52
72640;BME280;60683;51.730;8.762;2024-02-21T13:55:30;100043.16;;;11.03;78.01
72640;BME280;60683;51.730;8.762;2024-02-21T13:58:16;100034.47;;;11.13;76.60
72640;BME280;60683;51.730;8.762;2024-02-21T14:01:02;100000.13;;;11.03;73.07
72640;BME280;60683;51.730;8.762;2024-02-21T14:03:49;99975.31;;;11.01;72.64
72640;BME280;60683;51.730;8.762;2024-02-21T14:06:34;99973.56;;;11.07;70.67
72640;BME280;60683;51.730;8.762;2024-02-21T14:09:21;99967.34;;;11.06;70.47
72640;BME280;60683;51.730;8.762;2024-02-21T14:12:06;99959.19;;;11.01;70.51
72640;BME280;60683;51.730;8.762;2024-02-21T14:14:52;99949.16;;;10.97;70.34
72640;BME280;60683;51.730;8.762;2024-02-21T14:17:39;99964.09;;;11.04;70.89
72640;BME280;60683;51.730;8.762;2024-02-21T14:20:26;99956.84;;;11.05;70.47
72640;BME280;60683;51.730;8.762;2024-02-21T14:23:11;99956.25;;;11.03;73.97
72640;BME280;60683;51.730;8.762;2024-02-21T14:25:57;99944.25;;;10.93;78.12
72640;BME280;60683;51.730;8.762;2024-02-21T14:28:42;99936.19;;;10.93;79.81
72640;BME280;60683;51.730;8.762;2024-02-21T14:31:29;99911.03;;;10.71;78.37